Arnett, West Virginia
Current Conditions -  °F | °C
As of 5:51 AM on Tuesday 21 Oct 2014 (Local Time) from KBKW Reporting Station
Few Clouds Few Clouds  
Wind Chill: 46°   Ceiling: Unl
Heat Index: 46°   Visibility: 10mi
Dew Point: 44°   Wind: 3mph
Humidity: 93%   Direction: 200°SSW
Pressure: 29.93"   Gusts: NA
Location:  37.83°N, 81.43°W
Report Text: KBKW 210951Z AUTO 20003KT 10SM FEW038 08/07 A2993 RMK AO2 RAE04 SLP133 P0001 T00780067 TSNO
Loading
Personal Weather Stations






























Interactive Weather Map
Tropical Storm Tracking
New forecast layout! Learn more

10-Day Weather Forecast

Advertisements
Track Severe Weather on mobile